Time;durP1;ratioP1;P1;durP2;ratioP2;P2;SDS_P1;SDS_P2;PMS_P1;PMS_P2;Temp;Humidity;BMP_temperature;BMP_pressure;BME280_temperature;BME280_humidity;BME280_pressure;Samples;Min_cycle;Max_cycle;Signal;HPM_P1;HPM_P2
2021/06/04 00:02:02;;;;;;;2.80;1.63;;;23.10;47.90;;;;;;5096262;28;20094;-69
2021/06/04 00:04:27;;;;;;;3.20;1.90;;;23.10;47.90;;;;;;5096450;28;20515;-69
2021/06/04 00:06:53;;;;;;;4.10;1.60;;;23.10;47.90;;;;;;5096220;28;20047;-69
2021/06/04 00:09:19;;;;;;;4.13;1.92;;;23.10;47.90;;;;;;5096066;28;20028;-69
2021/06/04 00:11:50;;;;;;;3.15;1.90;;;23.10;47.90;;;;;;5096555;28;20039;-69
2021/06/04 00:14:20;;;;;;;3.08;1.50;;;23.00;47.90;;;;;;5096105;28;20028;-69
2021/06/04 00:16:54;;;;;;;3.03;1.63;;;23.00;48.00;;;;;;5096401;28;20120;-69
2021/06/04 00:19:21;;;;;;;4.03;2.28;;;23.00;48.00;;;;;;5096058;28;20020;-69
2021/06/04 00:21:54;;;;;;;2.33;1.38;;;23.00;48.00;;;;;;5096449;28;20032;-69
2021/06/04 00:24:20;;;;;;;3.60;1.73;;;23.00;48.00;;;;;;5095985;28;20052;-69
2021/06/04 00:26:47;;;;;;;3.38;1.52;;;23.00;48.00;;;;;;5096376;28;20046;-69
2021/06/04 00:29:14;;;;;;;3.45;1.90;;;23.00;48.00;;;;;;5096042;28;20100;-69
2021/06/04 00:31:40;;;;;;;5.18;1.80;;;23.00;48.10;;;;;;5096001;28;20024;-69
2021/06/04 00:34:06;;;;;;;3.85;1.95;;;23.00;48.10;;;;;;5095720;28;20490;-69
2021/06/04 00:36:33;;;;;;;3.63;1.92;;;23.00;48.10;;;;;;5095461;28;20479;-69
2021/06/04 00:39:00;;;;;;;3.55;1.67;;;23.00;48.10;;;;;;5095443;28;20095;-69
2021/06/04 00:41:32;;;;;;;3.55;1.83;;;23.00;48.20;;;;;;5095696;28;20024;-69
2021/06/04 00:43:58;;;;;;;3.85;1.90;;;23.00;48.20;;;;;;5095560;28;20023;-69
2021/06/04 00:46:25;;;;;;;3.35;1.83;;;22.90;48.20;;;;;;5095539;28;20025;-69
2021/06/04 00:48:52;;;;;;;3.28;1.70;;;23.00;48.20;;;;;;5095831;28;20020;-69
2021/06/04 00:51:30;;;;;;;3.58;1.80;;;22.90;48.30;;;;;;5095862;28;20083;-69
2021/06/04 00:53:57;;;;;;;4.97;2.05;;;22.90;48.30;;;;;;5096770;28;20028;-69
2021/06/04 00:56:26;;;;;;;2.63;1.42;;;22.90;48.30;;;;;;5098217;28;20028;-71
2021/06/04 00:58:52;;;;;;;3.83;2.10;;;23.00;48.30;;;;;;5106129;28;20024;-70
2021/06/04 01:01:22;;;;;;;3.15;1.70;;;22.90;48.30;;;;;;5105798;28;20035;-70
2021/06/04 01:03:55;;;;;;;3.55;1.70;;;22.90;48.30;;;;;;5105661;28;20056;-70
2021/06/04 01:06:48;;;;;;;4.68;1.92;;;22.90;48.30;;;;;;5105570;28;20054;-69
2021/06/04 01:09:48;;;;;;;3.90;2.10;;;22.90;48.40;;;;;;5106735;28;20384;-68
2021/06/04 01:12:40;;;;;;;4.30;1.75;;;22.90;48.50;;;;;;5104831;28;20063;-69
2021/06/04 01:15:31;;;;;;;4.25;2.10;;;22.90;48.40;;;;;;5096068;28;20104;-69
2021/06/04 01:18:27;;;;;;;4.28;2.08;;;22.90;48.50;;;;;;5096513;28;20066;-69
2021/06/04 01:20:57;;;;;;;4.32;1.90;;;22.90;48.50;;;;;;5095217;28;20027;-70
2021/06/04 01:23:42;;;;;;;4.35;2.00;;;22.90;48.50;;;;;;5094629;28;20567;-69
2021/06/04 01:26:11;;;;;;;5.07;2.25;;;22.90;48.60;;;;;;5095006;28;20084;-70
2021/06/04 01:28:46;;;;;;;4.00;2.15;;;22.90;48.60;;;;;;5094818;28;20455;-69
2021/06/04 01:31:46;;;;;;;4.05;2.20;;;22.90;48.60;;;;;;5094889;28;20353;-69
2021/06/04 01:34:14;;;;;;;4.72;2.15;;;22.80;48.60;;;;;;5083470;28;20078;-69
2021/06/04 01:36:53;;;;;;;4.18;2.22;;;22.80;48.60;;;;;;5094469;28;20112;-69
2021/06/04 01:39:29;;;;;;;4.38;2.10;;;22.90;48.60;;;;;;5094282;28;20081;-69
2021/06/04 01:41:57;;;;;;;4.40;2.28;;;22.80;48.60;;;;;;5094658;28;20495;-68
2021/06/04 01:44:48;;;;;;;3.63;2.13;;;22.80;48.70;;;;;;5094492;28;20039;-69
2021/06/04 01:47:23;;;;;;;4.47;2.00;;;22.80;48.70;;;;;;5094591;28;20356;-69
2021/06/04 01:49:53;;;;;;;3.85;1.90;;;22.80;48.80;;;;;;5094762;28;20022;-70
2021/06/04 01:52:30;;;;;;;4.75;2.28;;;22.80;48.80;;;;;;5094627;28;20024;-69
2021/06/04 01:55:26;;;;;;;4.03;2.20;;;22.80;48.80;;;;;;5094549;28;20039;-69
2021/06/04 01:58:04;;;;;;;3.70;1.98;;;22.80;48.80;;;;;;5092879;28;20031;-69
2021/06/04 02:00:38;;;;;;;4.47;2.20;;;22.80;48.80;;;;;;5094283;28;20024;-69
2021/06/04 02:03:05;;;;;;;4.45;2.50;;;22.80;48.80;;;;;;5094051;28;20024;-69
2021/06/04 02:05:34;;;;;;;4.10;2.40;;;22.80;48.80;;;;;;5093420;28;20036;-68
2021/06/04 02:08:00;;;;;;;5.22;2.78;;;22.80;48.90;;;;;;5093929;28;20055;-69
2021/06/04 02:10:33;;;;;;;5.45;2.63;;;22.80;48.90;;;;;;5094048;28;20024;-69
2021/06/04 02:12:59;;;;;;;4.28;2.28;;;22.80;49.00;;;;;;5094005;28;20020;-69
2021/06/04 02:15:29;;;;;;;3.90;2.17;;;22.80;49.00;;;;;;5093868;28;20032;-69
2021/06/04 02:18:05;;;;;;;4.22;2.30;;;22.80;49.00;;;;;;5092846;28;20438;-69
2021/06/04 02:20:39;;;;;;;4.95;2.47;;;22.80;49.00;;;;;;5096091;28;20031;-69
2021/06/04 02:23:16;;;;;;;4.75;2.53;;;22.80;49.00;;;;;;5095778;28;20044;-69
2021/06/04 02:26:05;;;;;;;5.07;2.65;;;22.80;49.00;;;;;;5095577;28;20285;-69
2021/06/04 02:28:43;;;;;;;4.63;2.63;;;22.70;49.10;;;;;;5093770;28;20016;-69
2021/06/04 02:31:31;;;;;;;4.47;2.40;;;22.70;49.10;;;;;;5093966;28;20024;-69
2021/06/04 02:34:25;;;;;;;4.40;2.25;;;22.70;49.10;;;;;;5094147;28;20020;-68
2021/06/04 02:37:13;;;;;;;4.30;2.37;;;22.70;49.10;;;;;;5097032;28;20468;-68
2021/06/04 02:39:43;;;;;;;4.75;2.55;;;22.70;49.10;;;;;;5093425;28;20028;-68
2021/06/04 02:42:24;;;;;;;4.65;2.72;;;22.70;49.10;;;;;;5092982;28;20020;-68
2021/06/04 02:44:59;;;;;;;4.50;2.55;;;22.70;49.20;;;;;;5093019;28;20028;-68
2021/06/04 02:47:40;;;;;;;3.88;2.05;;;22.70;49.20;;;;;;5092983;28;20028;-68
2021/06/04 02:50:11;;;;;;;3.95;2.40;;;22.70;49.20;;;;;;5093268;28;20428;-68
2021/06/04 02:52:43;;;;;;;4.07;2.25;;;22.70;49.30;;;;;;5093761;28;20032;-68
2021/06/04 02:55:13;;;;;;;4.18;2.00;;;22.70;49.20;;;;;;5093615;28;20032;-68
2021/06/04 02:57:39;;;;;;;5.18;2.78;;;22.70;49.30;;;;;;5093562;28;20134;-68
2021/06/04 03:00:29;;;;;;;4.10;2.28;;;22.70;49.30;;;;;;5093795;28;20032;-69
2021/06/04 03:02:55;;;;;;;4.55;2.50;;;22.70;49.30;;;;;;5094012;28;20024;-68
2021/06/04 03:05:27;;;;;;;4.72;2.42;;;22.70;49.30;;;;;;5093760;28;20468;-70
2021/06/04 03:07:54;;;;;;;4.68;2.50;;;22.70;49.40;;;;;;5093298;28;20028;-68
2021/06/04 03:10:42;;;;;;;4.60;2.65;;;22.70;49.30;;;;;;5093513;28;20107;-69
2021/06/04 03:13:10;;;;;;;3.83;2.40;;;22.70;49.40;;;;;;5093225;28;20023;-68
2021/06/04 03:15:45;;;;;;;4.07;2.40;;;22.70;49.40;;;;;;5093140;28;20028;-69
2021/06/04 03:18:14;;;;;;;4.85;2.75;;;22.70;49.50;;;;;;5097472;28;20539;-68
2021/06/04 03:20:43;;;;;;;5.35;2.60;;;22.60;49.50;;;;;;5096985;28;20039;-68
2021/06/04 03:23:15;;;;;;;5.20;2.80;;;22.60;49.40;;;;;;5097065;28;20506;-68
2021/06/04 03:25:47;;;;;;;5.97;2.83;;;22.60;49.50;;;;;;5096887;28;20060;-68
2021/06/04 03:28:17;;;;;;;6.47;2.60;;;22.60;49.50;;;;;;5097171;28;20042;-69
2021/06/04 03:30:45;;;;;;;5.28;2.70;;;22.60;49.60;;;;;;5096954;28;20034;-68
2021/06/04 03:33:14;;;;;;;4.43;2.55;;;22.60;49.50;;;;;;5096643;28;20043;-69
2021/06/04 03:35:40;;;;;;;5.07;2.65;;;22.60;49.60;;;;;;5096676;28;20094;-69
2021/06/04 03:38:06;;;;;;;5.47;2.80;;;22.60;49.60;;;;;;5096629;28;20148;-70
2021/06/04 03:40:33;;;;;;;4.53;2.50;;;22.60;49.60;;;;;;5096708;28;20110;-69
2021/06/04 03:43:02;;;;;;;5.28;2.95;;;22.60;49.80;;;;;;5096583;28;20022;-69
2021/06/04 03:45:33;;;;;;;4.60;2.28;;;22.60;49.70;;;;;;5096757;28;20035;-69
2021/06/04 03:47:59;;;;;;;4.32;2.45;;;22.60;49.70;;;;;;5096860;28;20495;-69
2021/06/04 03:50:25;;;;;;;4.88;2.88;;;22.60;49.80;;;;;;5097184;28;20053;-69
2021/06/04 03:52:52;;;;;;;5.40;2.80;;;22.60;49.70;;;;;;5096792;28;20028;-69
2021/06/04 03:55:22;;;;;;;4.85;2.50;;;22.60;49.70;;;;;;5096357;28;20127;-69
2021/06/04 03:57:49;;;;;;;4.90;2.63;;;22.60;49.80;;;;;;5096727;28;20031;-69
2021/06/04 04:00:26;;;;;;;5.20;2.70;;;22.60;49.70;;;;;;5096089;28;20024;-69
2021/06/04 04:02:53;;;;;;;4.68;2.58;;;22.60;49.80;;;;;;5096370;28;20053;-70
2021/06/04 04:05:19;;;;;;;6.18;2.78;;;22.60;49.70;;;;;;5096333;28;20071;-69
2021/06/04 04:07:45;;;;;;;5.68;2.80;;;22.60;49.80;;;;;;5096614;28;20383;-69
2021/06/04 04:10:11;;;;;;;4.47;2.65;;;22.60;49.80;;;;;;5096455;28;20020;-69
2021/06/04 04:12:37;;;;;;;4.05;2.38;;;22.50;49.80;;;;;;5096325;28;20020;-69
2021/06/04 04:15:05;;;;;;;4.50;2.63;;;22.50;49.80;;;;;;5096333;28;20031;-69
2021/06/04 04:17:31;;;;;;;4.75;2.58;;;22.60;49.90;;;;;;5095909;28;20032;-69
2021/06/04 04:19:57;;;;;;;6.10;2.35;;;22.50;49.90;;;;;;5096100;28;20036;-69
2021/06/04 04:22:24;;;;;;;4.72;2.80;;;22.50;50.00;;;;;;5095755;28;20020;-71
2021/06/04 04:24:50;;;;;;;5.03;2.70;;;22.60;49.90;;;;;;5095601;28;20043;-69
2021/06/04 04:27:16;;;;;;;4.93;2.60;;;22.60;49.90;;;;;;5094011;28;20063;-69
2021/06/04 04:29:41;;;;;;;4.70;2.55;;;22.60;50.00;;;;;;5095556;28;20023;-69
2021/06/04 04:32:13;;;;;;;4.50;2.58;;;22.50;49.90;;;;;;5095942;28;20024;-69
2021/06/04 04:34:41;;;;;;;5.07;2.65;;;22.60;49.90;;;;;;5095955;28;20038;-69
2021/06/04 04:37:06;;;;;;;4.50;2.58;;;22.60;49.90;;;;;;5095634;28;20475;-69
2021/06/04 04:39:35;;;;;;;5.18;2.78;;;22.60;50.00;;;;;;5095929;28;20031;-69
2021/06/04 04:42:03;;;;;;;4.93;2.63;;;22.50;50.00;;;;;;5095886;28;20032;-69
2021/06/04 04:44:31;;;;;;;5.70;2.63;;;22.60;50.00;;;;;;5095499;28;20147;-69
2021/06/04 04:46:58;;;;;;;4.75;2.55;;;22.50;50.00;;;;;;5095263;28;20028;-70
2021/06/04 04:49:24;;;;;;;4.90;2.63;;;22.50;50.00;;;;;;5095605;28;20016;-69
2021/06/04 04:51:49;;;;;;;4.30;2.67;;;22.60;50.00;;;;;;5095495;28;20028;-69
2021/06/04 04:54:17;;;;;;;5.25;2.67;;;22.60;50.00;;;;;;5095662;28;20027;-69
2021/06/04 04:56:42;;;;;;;5.82;2.67;;;22.60;50.00;;;;;;5095736;28;20039;-69
2021/06/04 04:59:10;;;;;;;6.43;2.95;;;22.50;50.00;;;;;;5095575;28;20020;-69
2021/06/04 05:01:36;;;;;;;4.72;2.70;;;22.50;50.00;;;;;;5095607;28;20043;-69
2021/06/04 05:04:01;;;;;;;4.68;2.53;;;22.60;50.10;;;;;;5095227;28;20024;-69
2021/06/04 05:06:27;;;;;;;5.65;2.85;;;22.60;50.00;;;;;;5094977;28;20028;-69
2021/06/04 05:08:53;;;;;;;5.40;2.75;;;22.50;50.00;;;;;;5095097;28;20028;-69
2021/06/04 05:11:18;;;;;;;5.30;3.05;;;22.60;50.10;;;;;;5093816;28;20091;-69
2021/06/04 05:13:44;;;;;;;5.65;2.72;;;22.60;50.10;;;;;;5095243;28;20034;-69
2021/06/04 05:16:10;;;;;;;4.97;2.20;;;22.60;50.10;;;;;;5093842;28;20032;-69
2021/06/04 05:18:38;;;;;;;4.97;2.60;;;22.60;50.10;;;;;;5094862;28;20024;-69
2021/06/04 05:21:07;;;;;;;5.45;2.78;;;22.60;50.10;;;;;;5095174;28;20030;-69
2021/06/04 05:23:33;;;;;;;4.57;2.53;;;22.60;50.10;;;;;;5094622;28;20040;-69
2021/06/04 05:25:59;;;;;;;4.70;2.75;;;22.60;50.10;;;;;;5094825;28;20104;-69
2021/06/04 05:28:27;;;;;;;4.32;2.60;;;22.60;50.20;;;;;;5094829;28;20467;-69
2021/06/04 05:30:57;;;;;;;4.68;2.55;;;22.60;50.20;;;;;;5094653;28;20024;-69
2021/06/04 05:33:33;;;;;;;7.47;2.85;;;22.60;50.20;;;;;;5094619;28;20188;-69
2021/06/04 05:36:00;;;;;;;5.95;3.00;;;22.60;50.20;;;;;;5094751;28;20032;-69
2021/06/04 05:38:27;;;;;;;5.60;2.70;;;22.60;50.20;;;;;;5094754;28;20100;-69
2021/06/04 05:40:53;;;;;;;4.60;2.60;;;22.50;50.30;;;;;;5094111;28;20549;-69
2021/06/04 05:43:23;;;;;;;4.50;2.60;;;22.60;50.30;;;;;;5094824;28;20464;-69
2021/06/04 05:45:49;;;;;;;6.00;2.60;;;22.50;50.30;;;;;;5094442;28;20062;-69
2021/06/04 05:48:16;;;;;;;4.93;2.78;;;22.60;50.20;;;;;;5094377;28;20077;-69
2021/06/04 05:50:45;;;;;;;5.80;2.90;;;22.60;50.40;;;;;;5094256;28;20490;-69
2021/06/04 05:53:13;;;;;;;4.57;2.53;;;22.60;50.40;;;;;;5094006;28;20099;-70
2021/06/04 05:55:40;;;;;;;5.47;2.80;;;22.60;50.30;;;;;;5094389;28;20031;-69
2021/06/04 05:58:08;;;;;;;5.28;3.25;;;22.60;50.30;;;;;;5094328;28;20103;-69
2021/06/04 06:00:40;;;;;;;5.45;2.58;;;22.60;50.40;;;;;;5094064;28;20100;-69
2021/06/04 06:03:06;;;;;;;6.05;2.75;;;22.60;50.40;;;;;;5094114;28;20438;-69
2021/06/04 06:05:31;;;;;;;4.93;2.75;;;22.60;50.40;;;;;;5093909;28;20059;-69
2021/06/04 06:07:57;;;;;;;6.07;3.08;;;22.60;50.40;;;;;;5094238;28;20020;-69
2021/06/04 06:10:23;;;;;;;6.80;3.40;;;22.60;50.40;;;;;;5093928;28;20024;-69
2021/06/04 06:12:50;;;;;;;5.28;2.88;;;22.60;50.40;;;;;;5094155;28;20439;-69
2021/06/04 06:15:16;;;;;;;4.47;2.53;;;22.60;50.30;;;;;;5093365;28;20468;-69
2021/06/04 06:17:42;;;;;;;5.35;2.88;;;22.70;50.40;;;;;;5093727;28;20115;-69
2021/06/04 06:20:10;;;;;;;4.82;2.60;;;22.70;50.30;;;;;;5094063;28;20420;-69
2021/06/04 06:22:36;;;;;;;4.60;2.42;;;22.70;50.20;;;;;;5094127;28;20092;-69
2021/06/04 06:25:05;;;;;;;4.68;2.60;;;22.70;50.30;;;;;;5093439;28;20055;-69
2021/06/04 06:27:31;;;;;;;5.75;3.03;;;22.70;50.30;;;;;;5093380;28;20100;-69
2021/06/04 06:29:56;;;;;;;5.47;2.90;;;22.70;50.30;;;;;;5093588;28;20112;-69
2021/06/04 06:32:22;;;;;;;4.65;2.70;;;22.70;50.40;;;;;;5094104;28;20095;-69
2021/06/04 06:34:48;;;;;;;4.80;2.78;;;22.70;50.40;;;;;;5093449;28;20024;-69
2021/06/04 06:37:15;;;;;;;5.20;2.78;;;22.70;50.40;;;;;;5093722;28;20127;-69
2021/06/04 06:39:41;;;;;;;4.93;2.70;;;22.70;50.50;;;;;;5093539;28;20024;-69
2021/06/04 06:42:07;;;;;;;5.35;2.75;;;22.70;50.50;;;;;;5093348;28;20024;-69
2021/06/04 06:44:32;;;;;;;4.88;2.60;;;22.70;50.50;;;;;;5093438;28;20040;-69
2021/06/04 06:46:59;;;;;;;5.55;2.80;;;22.70;50.50;;;;;;5093568;28;20387;-69
2021/06/04 06:49:25;;;;;;;4.68;2.30;;;22.70;50.50;;;;;;5093400;28;20028;-69
2021/06/04 06:51:51;;;;;;;4.15;2.55;;;22.70;50.50;;;;;;5092745;28;20039;-69
2021/06/04 07:31:51;;;;;;;5.60;3.03;;;22.70;50.70;;;;;;5129024;27;20235;-64
2021/06/04 07:34:17;;;;;;;4.63;2.60;;;23.00;50.00;;;;;;5110248;28;20055;-64
2021/06/04 07:36:47;;;;;;;4.57;2.78;;;23.00;50.00;;;;;;5110412;28;20024;-67
2021/06/04 07:39:16;;;;;;;5.45;2.65;;;23.00;50.00;;;;;;5110409;28;20030;-64
2021/06/04 07:41:43;;;;;;;5.28;3.08;;;23.00;50.10;;;;;;5110183;28;20035;-63
2021/06/04 07:44:10;;;;;;;4.50;2.58;;;22.90;50.20;;;;;;5145187;22;20410;-68
2021/06/04 07:46:36;;;;;;;4.68;2.45;;;23.00;50.20;;;;;;5068945;28;20035;-68
2021/06/04 07:49:02;;;;;;;5.00;2.72;;;22.90;50.30;;;;;;5069042;28;20100;-67
2021/06/04 07:51:34;;;;;;;5.05;2.67;;;22.90;50.30;;;;;;5069209;28;20048;-68
2021/06/04 07:54:00;;;;;;;5.60;2.97;;;22.90;50.30;;;;;;5068902;28;20029;-69
2021/06/04 07:56:26;;;;;;;4.63;2.70;;;22.90;50.40;;;;;;5069087;28;20055;-69
2021/06/04 07:58:52;;;;;;;4.47;2.65;;;22.90;50.50;;;;;;5067899;28;20021;-69
2021/06/04 08:01:18;;;;;;;6.03;2.97;;;22.90;50.40;;;;;;5068909;28;20056;-68
2021/06/04 08:03:45;;;;;;;4.80;2.78;;;22.90;50.50;;;;;;5068892;28;20021;-68
2021/06/04 08:06:12;;;;;;;5.47;2.90;;;22.90;50.50;;;;;;5067585;28;20029;-68
2021/06/04 08:08:38;;;;;;;5.07;2.90;;;22.90;50.50;;;;;;5068834;28;20036;-69
2021/06/04 08:11:07;;;;;;;4.72;2.70;;;22.90;50.60;;;;;;5067295;28;20028;-69
2021/06/04 08:13:33;;;;;;;5.10;2.72;;;22.90;50.50;;;;;;5068738;28;20075;-69
2021/06/04 08:16:05;;;;;;;6.15;2.72;;;23.00;50.50;;;;;;5067276;28;20025;-68
2021/06/04 08:18:34;;;;;;;4.93;2.72;;;23.00;50.30;;;;;;5067502;28;20063;-69
2021/06/04 08:21:00;;;;;;;4.78;2.97;;;23.00;50.30;;;;;;5066917;28;20037;-68
2021/06/04 08:23:33;;;;;;;6.05;3.33;;;23.00;50.40;;;;;;5068333;28;20029;-68
2021/06/04 08:26:00;;;;;;;4.78;2.53;;;23.00;50.40;;;;;;5068398;28;20395;-68
2021/06/04 08:28:28;;;;;;;4.82;3.00;;;23.00;50.40;;;;;;5066751;28;20079;-68
2021/06/04 08:30:54;;;;;;;5.55;3.40;;;23.00;50.40;;;;;;5064980;28;20061;-69
2021/06/04 08:33:27;;;;;;;5.22;2.80;;;23.00;50.40;;;;;;5054923;28;20044;-68
2021/06/04 08:35:53;;;;;;;5.97;2.97;;;23.10;50.30;;;;;;5055061;28;20032;-68
2021/06/04 08:38:20;;;;;;;5.07;3.08;;;23.10;50.20;;;;;;5054956;28;20099;-69
2021/06/04 08:40:46;;;;;;;4.55;3.00;;;23.00;50.30;;;;;;5055061;28;20035;-68
2021/06/04 08:43:27;;;;;;;5.82;3.17;;;23.00;50.30;;;;;;5054580;28;20045;-68
2021/06/04 08:46:19;;;;;;;5.32;3.20;;;23.10;50.30;;;;;;5054523;28;20036;-69
2021/06/04 08:48:57;;;;;;;4.75;2.78;;;23.00;50.30;;;;;;5054709;28;20052;-69
2021/06/04 08:51:35;;;;;;;5.18;2.80;;;23.00;50.40;;;;;;5054509;28;20025;-68
2021/06/04 08:54:10;;;;;;;6.57;2.78;;;23.10;50.40;;;;;;5054659;28;20021;-69
2021/06/04 08:56:56;;;;;;;5.43;2.95;;;23.10;50.40;;;;;;5054981;28;20027;-68
2021/06/04 08:59:23;;;;;;;4.35;2.70;;;23.10;50.40;;;;;;5053574;28;20033;-68
2021/06/04 09:01:53;;;;;;;6.32;3.40;;;23.00;50.40;;;;;;5053635;28;20083;-68
2021/06/04 09:04:33;;;;;;;4.78;2.85;;;23.00;50.40;;;;;;5055034;28;20052;-68
2021/06/04 09:07:01;;;;;;;6.13;3.10;;;23.10;50.40;;;;;;5054991;28;20033;-68
2021/06/04 09:09:42;;;;;;;5.25;3.13;;;23.10;50.30;;;;;;5053472;28;20025;-68
2021/06/04 09:12:18;;;;;;;5.25;2.97;;;23.20;50.20;;;;;;5053440;28;20476;-68
2021/06/04 09:14:46;;;;;;;4.25;2.55;;;23.10;50.20;;;;;;5055044;28;20032;-69
2021/06/04 09:17:35;;;;;;;4.72;2.75;;;23.10;50.20;;;;;;5054529;28;20025;-68
2021/06/04 09:20:00;;;;;;;4.05;2.45;;;23.20;50.20;;;;;;5034787;28;20049;-68
2021/06/04 09:22:30;;;;;;;5.32;2.70;;;23.20;50.10;;;;;;5053216;28;20063;-69
2021/06/04 09:24:56;;;;;;;4.45;2.45;;;23.20;50.20;;;;;;5054500;28;20028;-69
2021/06/04 09:27:28;;;;;;;4.57;2.53;;;23.20;50.20;;;;;;5054560;28;20103;-69
2021/06/04 09:30:08;;;;;;;4.72;2.75;;;23.20;50.20;;;;;;5054486;28;20025;-69
2021/06/04 09:32:33;;;;;;;4.60;2.90;;;23.10;50.30;;;;;;5054674;28;20029;-68
2021/06/04 09:35:16;;;;;;;5.18;2.92;;;23.20;50.30;;;;;;5054310;28;20364;-68
2021/06/04 09:37:42;;;;;;;4.72;2.72;;;23.20;50.30;;;;;;5053034;28;20398;-68
2021/06/04 09:40:30;;;;;;;4.75;2.60;;;23.20;50.30;;;;;;5052916;28;20025;-68
2021/06/04 09:43:08;;;;;;;5.30;3.03;;;23.20;50.20;;;;;;5053135;28;20071;-69
2021/06/04 09:45:52;;;;;;;4.25;2.72;;;23.20;50.20;;;;;;5052777;28;20306;-68
2021/06/04 09:48:51;;;;;;;5.20;3.17;;;23.20;50.20;;;;;;5054442;28;20040;-68
2021/06/04 09:51:30;;;;;;;5.32;3.15;;;23.20;50.20;;;;;;5054003;28;20048;-69
2021/06/04 09:54:19;;;;;;;4.95;2.53;;;23.20;50.10;;;;;;5053818;28;20083;-68
2021/06/04 09:56:45;;;;;;;5.78;3.17;;;23.30;50.10;;;;;;5054125;28;20052;-68
2021/06/04 09:59:13;;;;;;;4.68;2.80;;;23.30;50.20;;;;;;5036003;28;20064;-69
2021/06/04 10:01:48;;;;;;;5.50;3.15;;;23.20;50.20;;;;;;5053758;28;20028;-71
2021/06/04 10:04:23;;;;;;;4.53;2.80;;;23.20;50.30;;;;;;5053970;28;20033;-69
2021/06/04 10:07:13;;;;;;;5.32;3.13;;;23.20;50.20;;;;;;5053905;28;20075;-68
2021/06/04 10:09:41;;;;;;;5.50;2.95;;;23.20;50.30;;;;;;5052027;28;20025;-68
2021/06/04 10:12:27;;;;;;;3.85;2.20;;;23.20;50.30;;;;;;5053727;28;20031;-69
2021/06/04 10:14:56;;;;;;;4.80;2.92;;;23.20;50.30;;;;;;5053666;28;20025;-68
2021/06/04 10:20:46;;;;;;;5.38;2.95;;;23.20;50.20;;;;;;5053274;28;20048;-69
2021/06/04 10:23:42;;;;;;;5.18;3.33;;;23.30;50.10;;;;;;4995100;28;20037;-68
2021/06/04 10:26:36;;;;;;;5.15;2.90;;;23.30;50.10;;;;;;5052288;28;20040;-68
2021/06/04 10:29:07;;;;;;;4.18;2.53;;;23.40;50.10;;;;;;5053444;28;20021;-69
2021/06/04 10:32:00;;;;;;;4.35;2.85;;;23.40;50.00;;;;;;5053297;28;20399;-68
2021/06/04 10:35:03;;;;;;;5.00;2.90;;;23.40;50.00;;;;;;5053268;28;20476;-68
2021/06/04 10:37:33;;;;;;;5.18;3.08;;;23.40;49.90;;;;;;5053465;28;20033;-68
2021/06/04 10:40:13;;;;;;;4.93;2.65;;;23.40;50.00;;;;;;5051875;28;20033;-68
2021/06/04 10:43:17;;;;;;;5.07;2.95;;;23.50;49.90;;;;;;5051741;28;20120;-68
2021/06/04 10:46:23;;;;;;;4.60;2.70;;;23.50;49.80;;;;;;5051884;28;20087;-68
2021/06/04 10:48:57;;;;;;;5.40;3.30;;;23.50;49.80;;;;;;5052889;28;20033;-68
2021/06/04 10:51:45;;;;;;;5.35;2.95;;;23.50;49.80;;;;;;5053078;28;20488;-69
2021/06/04 10:54:42;;;;;;;5.32;3.08;;;23.50;49.80;;;;;;5052587;28;20033;-69
2021/06/04 10:57:25;;;;;;;4.90;3.00;;;23.50;49.80;;;;;;5051581;28;20262;-68
2021/06/04 10:59:57;;;;;;;4.45;2.60;;;23.50;49.80;;;;;;5052884;28;20029;-68
2021/06/04 11:02:43;;;;;;;5.43;3.45;;;23.50;49.80;;;;;;5052957;28;20036;-68
2021/06/04 11:05:39;;;;;;;4.60;2.72;;;23.50;49.70;;;;;;5052873;28;20029;-69
2021/06/04 11:08:19;;;;;;;4.93;3.15;;;23.50;49.80;;;;;;5052960;28;20025;-69
2021/06/04 11:10:48;;;;;;;4.72;3.15;;;23.60;49.70;;;;;;5052759;28;20040;-69
2021/06/04 11:13:35;;;;;;;5.82;3.15;;;23.60;49.70;;;;;;5052635;28;20380;-69
2021/06/04 11:16:05;;;;;;;4.18;2.47;;;23.60;49.80;;;;;;5052771;28;20096;-69
2021/06/04 11:18:38;;;;;;;4.40;2.75;;;23.70;49.70;;;;;;5051404;28;20029;-69
2021/06/04 11:21:12;;;;;;;4.60;2.78;;;23.70;49.70;;;;;;5051284;28;20048;-68
2021/06/04 11:23:49;;;;;;;4.63;2.83;;;23.60;49.60;;;;;;5052654;28;20040;-69
2021/06/04 11:26:31;;;;;;;5.00;3.08;;;23.70;49.70;;;;;;5052683;28;20068;-68
2021/06/04 11:29:21;;;;;;;4.43;2.95;;;23.80;49.50;;;;;;5052584;28;20025;-69
2021/06/04 11:31:53;;;;;;;5.00;3.05;;;23.80;49.40;;;;;;5052126;28;20064;-68
2021/06/04 11:34:33;;;;;;;4.90;2.90;;;23.80;49.50;;;;;;5052591;28;20021;-69
2021/06/04 11:37:01;;;;;;;4.60;2.65;;;23.80;49.40;;;;;;5052648;28;20155;-69
2021/06/04 11:39:36;;;;;;;5.43;2.70;;;23.80;49.40;;;;;;5052420;28;20065;-69
2021/06/04 11:42:08;;;;;;;5.10;3.13;;;23.90;49.40;;;;;;5052569;28;20044;-68
2021/06/04 11:44:47;;;;;;;5.35;3.03;;;23.90;49.20;;;;;;5052329;28;20095;-68
2021/06/04 11:47:13;;;;;;;4.82;2.90;;;23.90;49.20;;;;;;5052024;28;20412;-68
2021/06/04 11:49:57;;;;;;;4.60;2.92;;;24.00;49.20;;;;;;5052105;28;20033;-68
2021/06/04 11:52:22;;;;;;;4.78;3.08;;;24.00;49.20;;;;;;5052327;28;20032;-68
2021/06/04 11:54:48;;;;;;;4.53;2.97;;;24.00;49.10;;;;;;5052227;28;20029;-68
2021/06/04 11:57:28;;;;;;;4.25;3.05;;;24.00;49.30;;;;;;5052035;28;20404;-68
2021/06/04 12:00:18;;;;;;;5.30;3.13;;;24.00;49.20;;;;;;5052010;28;20021;-68
2021/06/04 12:03:07;;;;;;;4.70;3.03;;;24.10;49.10;;;;;;5050864;28;20032;-68
2021/06/04 12:05:45;;;;;;;5.72;3.40;;;24.10;49.00;;;;;;5046070;28;20037;-68
2021/06/04 12:08:29;;;;;;;4.28;2.85;;;24.10;49.00;;;;;;5054606;28;20054;-67
2021/06/04 12:10:57;;;;;;;4.63;3.03;;;24.10;49.00;;;;;;5055891;28;20476;-68
2021/06/04 12:13:50;;;;;;;6.03;3.38;;;24.20;49.00;;;;;;5056187;28;20025;-68
2021/06/04 12:16:30;;;;;;;4.90;2.97;;;24.20;48.80;;;;;;5054520;28;20021;-68
2021/06/04 12:19:16;;;;;;;4.13;2.53;;;24.30;48.80;;;;;;5055761;28;20078;-68
2021/06/04 12:21:45;;;;;;;4.70;2.80;;;24.40;48.70;;;;;;5055727;28;20039;-68
2021/06/04 12:24:34;;;;;;;6.13;3.10;;;24.40;48.60;;;;;;5054338;28;20025;-69
2021/06/04 12:27:12;;;;;;;4.32;2.80;;;24.40;48.60;;;;;;5054319;28;20029;-68
2021/06/04 12:29:44;;;;;;;4.80;2.90;;;24.50;48.50;;;;;;5055474;28;20441;-68
2021/06/04 12:32:14;;;;;;;5.65;2.90;;;24.50;48.40;;;;;;5055401;28;20021;-68
2021/06/04 12:37:11;;;;;;;5.60;3.10;;;24.60;48.20;;;;;;5055550;28;20025;-68
2021/06/04 12:39:49;;;;;;;4.47;3.05;;;24.70;48.20;;;;;;5055127;28;20033;-68
2021/06/04 12:42:27;;;;;;;5.05;3.00;;;24.70;48.10;;;;;;5053864;28;20215;-68
2021/06/04 12:45:17;;;;;;;4.68;2.97;;;24.80;48.10;;;;;;5055377;28;20427;-68
2021/06/04 12:48:34;;;;;;;4.05;2.55;;;24.80;48.00;;;;;;5055269;28;20464;-69
2021/06/04 12:50:59;;;;;;;3.95;2.55;;;24.90;47.90;;;;;;5032180;28;20128;-68
2021/06/04 12:54:03;;;;;;;4.53;2.50;;;25.00;47.80;;;;;;5053807;28;20048;-68
2021/06/04 12:56:28;;;;;;;4.45;2.60;;;25.00;47.70;;;;;;5055020;28;20526;-68
2021/06/04 12:59:14;;;;;;;4.30;2.65;;;25.00;47.60;;;;;;5054935;28;20029;-68
2021/06/04 13:01:56;;;;;;;4.50;2.80;;;25.20;47.50;;;;;;5055233;28;20037;-68
2021/06/04 13:04:29;;;;;;;4.68;3.10;;;25.20;47.40;;;;;;5055022;28;20028;-68
2021/06/04 13:06:57;;;;;;;5.07;2.88;;;25.20;47.40;;;;;;5054904;28;20495;-68
2021/06/04 13:09:31;;;;;;;5.00;2.80;;;25.20;47.40;;;;;;5054880;28;20065;-68
2021/06/04 13:11:59;;;;;;;4.35;2.75;;;25.20;47.40;;;;;;5054910;28;20068;-67
2021/06/04 13:14:42;;;;;;;5.22;3.00;;;25.10;47.60;;;;;;5053546;28;20025;-68
2021/06/04 13:17:26;;;;;;;5.25;3.17;;;25.10;47.70;;;;;;5053257;28;20587;-68
2021/06/04 13:20:14;;;;;;;4.43;2.83;;;25.10;47.80;;;;;;5053400;28;20124;-68
2021/06/04 13:22:43;;;;;;;5.35;3.00;;;25.00;47.90;;;;;;5054616;28;20024;-67
2021/06/04 13:25:28;;;;;;;3.58;2.20;;;25.10;47.80;;;;;;5054407;28;20036;-67
2021/06/04 13:28:16;;;;;;;4.93;2.83;;;25.20;47.60;;;;;;5054416;28;20078;-68
2021/06/04 13:30:48;;;;;;;5.07;3.17;;;25.30;47.50;;;;;;5054382;28;20527;-68
2021/06/04 13:33:22;;;;;;;5.45;2.88;;;25.30;47.40;;;;;;5054557;28;20033;-68
2021/06/04 13:35:50;;;;;;;3.90;2.63;;;25.40;47.30;;;;;;5054330;28;20515;-68
2021/06/04 13:38:19;;;;;;;4.50;2.97;;;25.50;47.20;;;;;;5054267;28;20017;-68
2021/06/04 13:40:45;;;;;;;5.53;3.22;;;25.50;47.10;;;;;;5053008;28;20056;-68
2021/06/04 13:43:28;;;;;;;5.88;3.50;;;25.60;47.00;;;;;;5054019;28;20500;-67
2021/06/04 13:45:55;;;;;;;4.72;2.85;;;25.70;46.80;;;;;;5054267;28;20036;-67
2021/06/04 13:48:31;;;;;;;5.13;3.00;;;25.70;46.70;;;;;;5054170;28;20024;-67
2021/06/04 13:51:08;;;;;;;4.47;2.85;;;25.80;46.60;;;;;;5054171;28;20025;-68
2021/06/04 13:53:40;;;;;;;5.55;3.03;;;25.90;46.50;;;;;;5054044;28;20036;-67
2021/06/04 13:56:14;;;;;;;5.63;3.50;;;25.90;46.40;;;;;;5053788;28;20042;-67
2021/06/04 13:58:41;;;;;;;5.55;3.53;;;26.00;46.40;;;;;;5054042;28;20116;-67
2021/06/04 14:01:15;;;;;;;4.47;3.00;;;26.00;46.30;;;;;;5053691;28;20059;-69
2021/06/04 14:04:04;;;;;;;3.60;2.25;;;26.00;46.30;;;;;;5054042;28;20021;-68